sensor_id;sensor_type;location;lat;lon;timestamp;temperature;humidity
44435;DHT22;30138;20.964;105.830;2023-04-03T00:03:19;25.30;99.90
44435;DHT22;30138;20.964;105.830;2023-04-03T00:08:28;25.30;99.90
44435;DHT22;30138;20.964;105.830;2023-04-03T00:13:36;25.30;99.90
44435;DHT22;30138;20.964;105.830;2023-04-03T00:18:46;25.40;99.90
44435;DHT22;30138;20.964;105.830;2023-04-03T00:23:54;25.30;99.90
44435;DHT22;30138;20.964;105.830;2023-04-03T00:29:01;25.40;99.90
44435;DHT22;30138;20.964;105.830;2023-04-03T00:34:11;25.30;99.90
44435;DHT22;30138;20.964;105.830;2023-04-03T00:39:18;25.30;99.90
44435;DHT22;30138;20.964;105.830;2023-04-03T00:50:23;25.30;99.90
44435;DHT22;30138;20.964;105.830;2023-04-03T00:55:31;25.30;99.90
44435;DHT22;30138;20.964;105.830;2023-04-03T01:00:40;25.30;99.90
44435;DHT22;30138;20.964;105.830;2023-04-03T01:05:53;25.40;99.90
44435;DHT22;30138;20.964;105.830;2023-04-03T01:11:02;25.40;99.90
44435;DHT22;30138;20.964;105.830;2023-04-03T01:16:11;25.40;99.90
44435;DHT22;30138;20.964;105.830;2023-04-03T01:27:13;25.40;99.90
44435;DHT22;30138;20.964;105.830;2023-04-03T01:32:23;25.40;99.90
44435;DHT22;30138;20.964;105.830;2023-04-03T01:37:30;25.40;99.90
44435;DHT22;30138;20.964;105.830;2023-04-03T01:42:38;25.40;99.90
44435;DHT22;30138;20.964;105.830;2023-04-03T01:47:46;25.40;99.90
44435;DHT22;30138;20.964;105.830;2023-04-03T01:52:54;25.50;99.90
44435;DHT22;30138;20.964;105.830;2023-04-03T01:58:01;25.50;99.90
44435;DHT22;30138;20.964;105.830;2023-04-03T02:03:09;25.50;99.90
44435;DHT22;30138;20.964;105.830;2023-04-03T02:08:16;25.50;99.90
44435;DHT22;30138;20.964;105.830;2023-04-03T02:13:23;25.50;99.90
44435;DHT22;30138;20.964;105.830;2023-04-03T02:18:33;25.50;99.90
44435;DHT22;30138;20.964;105.830;2023-04-03T02:23:41;25.60;99.90
44435;DHT22;30138;20.964;105.830;2023-04-03T02:28:48;25.60;99.90
44435;DHT22;30138;20.964;105.830;2023-04-03T02:33:59;25.60;99.90
44435;DHT22;30138;20.964;105.830;2023-04-03T02:39:12;25.60;99.90
44435;DHT22;30138;20.964;105.830;2023-04-03T02:44:19;25.60;99.90
44435;DHT22;30138;20.964;105.830;2023-04-03T02:49:28;25.70;99.90
44435;DHT22;30138;20.964;105.830;2023-04-03T02:54:36;25.70;99.90
44435;DHT22;30138;20.964;105.830;2023-04-03T02:59:45;25.70;99.90
44435;DHT22;30138;20.964;105.830;2023-04-03T03:04:54;25.70;99.90
44435;DHT22;30138;20.964;105.830;2023-04-03T03:10:01;25.80;99.90
44435;DHT22;30138;20.964;105.830;2023-04-03T03:15:09;25.80;99.90
44435;DHT22;30138;20.964;105.830;2023-04-03T03:20:18;25.80;99.90
44435;DHT22;30138;20.964;105.830;2023-04-03T03:25:26;25.80;99.90
44435;DHT22;30138;20.964;105.830;2023-04-03T03:30:33;25.90;99.90
44435;DHT22;30138;20.964;105.830;2023-04-03T03:35:42;25.90;99.90
44435;DHT22;30138;20.964;105.830;2023-04-03T03:40:49;26.00;99.90
44435;DHT22;30138;20.964;105.830;2023-04-03T03:45:58;26.10;99.90
44435;DHT22;30138;20.964;105.830;2023-04-03T03:51:07;26.10;99.90
44435;DHT22;30138;20.964;105.830;2023-04-03T03:56:15;26.20;99.90
44435;DHT22;30138;20.964;105.830;2023-04-03T04:01:23;26.20;99.90
44435;DHT22;30138;20.964;105.830;2023-04-03T04:06:32;26.20;99.90
44435;DHT22;30138;20.964;105.830;2023-04-03T04:11:41;26.30;99.90
44435;DHT22;30138;20.964;105.830;2023-04-03T04:16:49;26.30;99.90
44435;DHT22;30138;20.964;105.830;2023-04-03T04:22:02;26.30;99.90
44435;DHT22;30138;20.964;105.830;2023-04-03T04:27:10;26.40;99.90
44435;DHT22;30138;20.964;105.830;2023-04-03T04:32:17;26.40;99.90
44435;DHT22;30138;20.964;105.830;2023-04-03T04:37:25;26.40;99.90
44435;DHT22;30138;20.964;105.830;2023-04-03T04:42:33;26.40;99.90
44435;DHT22;30138;20.964;105.830;2023-04-03T04:47:40;26.50;99.90
44435;DHT22;30138;20.964;105.830;2023-04-03T04:52:50;26.50;99.90
44435;DHT22;30138;20.964;105.830;2023-04-03T04:57:56;26.60;99.90
44435;DHT22;30138;20.964;105.830;2023-04-03T05:03:03;26.60;99.90
44435;DHT22;30138;20.964;105.830;2023-04-03T05:08:12;26.60;99.90
44435;DHT22;30138;20.964;105.830;2023-04-03T05:13:19;26.60;99.90
44435;DHT22;30138;20.964;105.830;2023-04-03T05:18:25;26.60;99.90
44435;DHT22;30138;20.964;105.830;2023-04-03T05:23:37;26.70;99.90
44435;DHT22;30138;20.964;105.830;2023-04-03T05:28:45;26.70;99.90
44435;DHT22;30138;20.964;105.830;2023-04-03T05:33:52;26.70;99.90
44435;DHT22;30138;20.964;105.830;2023-04-03T05:39:00;26.80;99.90
44435;DHT22;30138;20.964;105.830;2023-04-03T05:44:10;26.80;99.90
44435;DHT22;30138;20.964;105.830;2023-04-03T05:49:18;26.90;99.90
44435;DHT22;30138;20.964;105.830;2023-04-03T05:54:29;26.90;99.90
44435;DHT22;30138;20.964;105.830;2023-04-03T05:59:52;26.90;99.90
44435;DHT22;30138;20.964;105.830;2023-04-03T06:05:00;26.90;99.90
44435;DHT22;30138;20.964;105.830;2023-04-03T06:10:10;27.00;99.90
44435;DHT22;30138;20.964;105.830;2023-04-03T06:15:17;27.00;99.90
44435;DHT22;30138;20.964;105.830;2023-04-03T06:20:25;27.00;99.90
44435;DHT22;30138;20.964;105.830;2023-04-03T06:25:39;27.00;99.90
44435;DHT22;30138;20.964;105.830;2023-04-03T06:30:48;27.00;99.90
44435;DHT22;30138;20.964;105.830;2023-04-03T06:35:59;27.00;99.90
44435;DHT22;30138;20.964;105.830;2023-04-03T06:41:10;27.00;99.90
44435;DHT22;30138;20.964;105.830;2023-04-03T06:46:17;27.00;99.90
44435;DHT22;30138;20.964;105.830;2023-04-03T06:51:28;27.00;99.90
44435;DHT22;30138;20.964;105.830;2023-04-03T06:56:37;27.00;99.90
44435;DHT22;30138;20.964;105.830;2023-04-03T07:01:45;27.00;99.90
44435;DHT22;30138;20.964;105.830;2023-04-03T07:06:52;27.00;99.90
44435;DHT22;30138;20.964;105.830;2023-04-03T07:12:00;27.00;99.90
44435;DHT22;30138;20.964;105.830;2023-04-03T07:17:07;27.10;99.90
44435;DHT22;30138;20.964;105.830;2023-04-03T07:22:13;27.00;99.90
44435;DHT22;30138;20.964;105.830;2023-04-03T07:27:22;27.10;99.90
44435;DHT22;30138;20.964;105.830;2023-04-03T07:32:30;27.10;99.90
44435;DHT22;30138;20.964;105.830;2023-04-03T07:37:36;27.20;99.90
44435;DHT22;30138;20.964;105.830;2023-04-03T07:42:46;27.20;99.90
44435;DHT22;30138;20.964;105.830;2023-04-03T07:47:53;27.20;99.90
44435;DHT22;30138;20.964;105.830;2023-04-03T07:52:59;27.20;99.90
44435;DHT22;30138;20.964;105.830;2023-04-03T07:58:08;27.20;99.90
44435;DHT22;30138;20.964;105.830;2023-04-03T08:03:16;27.30;99.90
44435;DHT22;30138;20.964;105.830;2023-04-03T08:08:24;27.30;99.90
44435;DHT22;30138;20.964;105.830;2023-04-03T08:13:34;27.30;99.90
44435;DHT22;30138;20.964;105.830;2023-04-03T08:18:41;27.30;99.90
44435;DHT22;30138;20.964;105.830;2023-04-03T08:23:49;27.30;99.90
44435;DHT22;30138;20.964;105.830;2023-04-03T08:28:58;27.30;99.90
44435;DHT22;30138;20.964;105.830;2023-04-03T08:34:04;27.30;99.90
44435;DHT22;30138;20.964;105.830;2023-04-03T08:39:12;27.40;99.90
44435;DHT22;30138;20.964;105.830;2023-04-03T08:44:27;27.40;99.90
44435;DHT22;30138;20.964;105.830;2023-04-03T08:49:40;27.40;99.90
44435;DHT22;30138;20.964;105.830;2023-04-03T08:54:52;27.40;99.90
44435;DHT22;30138;20.964;105.830;2023-04-03T09:00:05;27.40;99.90
44435;DHT22;30138;20.964;105.830;2023-04-03T09:05:17;27.40;99.90
44435;DHT22;30138;20.964;105.830;2023-04-03T09:10:28;27.40;99.90
44435;DHT22;30138;20.964;105.830;2023-04-03T09:15:40;27.50;99.90
44435;DHT22;30138;20.964;105.830;2023-04-03T09:20:52;27.40;99.90
44435;DHT22;30138;20.964;105.830;2023-04-03T09:26:05;27.50;99.90
44435;DHT22;30138;20.964;105.830;2023-04-03T09:31:20;27.50;99.90
44435;DHT22;30138;20.964;105.830;2023-04-03T09:36:45;27.50;99.90
44435;DHT22;30138;20.964;105.830;2023-04-03T09:42:02;27.50;99.90
44435;DHT22;30138;20.964;105.830;2023-04-03T09:47:24;27.50;99.90
44435;DHT22;30138;20.964;105.830;2023-04-03T09:52:32;27.50;99.90
44435;DHT22;30138;20.964;105.830;2023-04-03T09:57:39;27.50;99.90
44435;DHT22;30138;20.964;105.830;2023-04-03T10:02:50;27.50;99.90
44435;DHT22;30138;20.964;105.830;2023-04-03T10:08:21;27.50;99.90
44435;DHT22;30138;20.964;105.830;2023-04-03T10:13:29;27.50;99.90
44435;DHT22;30138;20.964;105.830;2023-04-03T10:18:40;27.40;99.90
44435;DHT22;30138;20.964;105.830;2023-04-03T10:23:53;27.50;99.90
44435;DHT22;30138;20.964;105.830;2023-04-03T10:29:10;27.40;99.90
44435;DHT22;30138;20.964;105.830;2023-04-03T10:34:28;27.40;99.90
44435;DHT22;30138;20.964;105.830;2023-04-03T10:39:42;27.40;99.90
44435;DHT22;30138;20.964;105.830;2023-04-03T10:45:03;27.40;99.90
44435;DHT22;30138;20.964;105.830;2023-04-03T10:50:36;27.40;99.90
44435;DHT22;30138;20.964;105.830;2023-04-03T10:55:51;27.40;99.90
44435;DHT22;30138;20.964;105.830;2023-04-03T11:01:02;27.40;99.90
44435;DHT22;30138;20.964;105.830;2023-04-03T11:06:22;27.50;99.90
44435;DHT22;30138;20.964;105.830;2023-04-03T11:11:35;27.40;99.90
44435;DHT22;30138;20.964;105.830;2023-04-03T11:16:47;27.50;99.90
44435;DHT22;30138;20.964;105.830;2023-04-03T11:21:56;27.50;99.90
44435;DHT22;30138;20.964;105.830;2023-04-03T11:27:11;27.50;99.90
44435;DHT22;30138;20.964;105.830;2023-04-03T11:38:18;27.60;99.90
44435;DHT22;30138;20.964;105.830;2023-04-03T11:43:28;27.60;99.90
44435;DHT22;30138;20.964;105.830;2023-04-03T11:48:52;27.60;99.90
44435;DHT22;30138;20.964;105.830;2023-04-03T11:59:57;27.70;99.90
44435;DHT22;30138;20.964;105.830;2023-04-03T12:05:27;27.70;99.90
44435;DHT22;30138;20.964;105.830;2023-04-03T12:10:37;27.70;99.90
44435;DHT22;30138;20.964;105.830;2023-04-03T12:15:55;27.70;99.90
44435;DHT22;30138;20.964;105.830;2023-04-03T12:21:03;27.80;99.90
44435;DHT22;30138;20.964;105.830;2023-04-03T12:26:22;27.80;99.90
44435;DHT22;30138;20.964;105.830;2023-04-03T12:31:40;27.80;99.90
44435;DHT22;30138;20.964;105.830;2023-04-03T12:37:00;27.70;99.90
44435;DHT22;30138;20.964;105.830;2023-04-03T12:42:25;27.70;99.90
44435;DHT22;30138;20.964;105.830;2023-04-03T12:47:42;27.70;99.90
44435;DHT22;30138;20.964;105.830;2023-04-03T12:52:54;27.70;99.90
44435;DHT22;30138;20.964;105.830;2023-04-03T12:58:24;27.70;99.90
44435;DHT22;30138;20.964;105.830;2023-04-03T13:03:31;27.70;99.90
44435;DHT22;30138;20.964;105.830;2023-04-03T13:08:38;27.70;99.90
44435;DHT22;30138;20.964;105.830;2023-04-03T13:13:57;27.70;99.90
44435;DHT22;30138;20.964;105.830;2023-04-03T13:19:14;27.70;99.90
44435;DHT22;30138;20.964;105.830;2023-04-03T13:24:24;27.70;99.90
44435;DHT22;30138;20.964;105.830;2023-04-03T13:29:37;27.70;99.90
44435;DHT22;30138;20.964;105.830;2023-04-03T13:34:44;27.70;99.90
44435;DHT22;30138;20.964;105.830;2023-04-03T13:40:00;27.60;99.90
44435;DHT22;30138;20.964;105.830;2023-04-03T13:45:19;27.70;99.90
44435;DHT22;30138;20.964;105.830;2023-04-03T13:50:29;27.60;99.90
44435;DHT22;30138;20.964;105.830;2023-04-03T13:55:39;27.70;99.90
44435;DHT22;30138;20.964;105.830;2023-04-03T14:01:09;27.70;99.90
44435;DHT22;30138;20.964;105.830;2023-04-03T14:06:20;27.70;99.90
44435;DHT22;30138;20.964;105.830;2023-04-03T14:11:29;27.70;99.90
44435;DHT22;30138;20.964;105.830;2023-04-03T14:16:40;27.70;99.90
44435;DHT22;30138;20.964;105.830;2023-04-03T14:21:48;27.70;99.90
44435;DHT22;30138;20.964;105.830;2023-04-03T14:26:56;27.80;99.90
44435;DHT22;30138;20.964;105.830;2023-04-03T14:32:05;27.70;99.90
44435;DHT22;30138;20.964;105.830;2023-04-03T14:37:14;27.70;99.90
44435;DHT22;30138;20.964;105.830;2023-04-03T14:42:24;27.80;99.90
44435;DHT22;30138;20.964;105.830;2023-04-03T14:47:33;27.80;99.90
44435;DHT22;30138;20.964;105.830;2023-04-03T14:52:45;27.70;99.90
44435;DHT22;30138;20.964;105.830;2023-04-03T14:57:52;27.70;99.90
44435;DHT22;30138;20.964;105.830;2023-04-03T15:03:00;27.80;99.90
44435;DHT22;30138;20.964;105.830;2023-04-03T15:08:17;27.80;99.90
44435;DHT22;30138;20.964;105.830;2023-04-03T15:13:25;27.80;99.90
44435;DHT22;30138;20.964;105.830;2023-04-03T15:18:37;27.80;99.90
44435;DHT22;30138;20.964;105.830;2023-04-03T15:23:47;27.80;99.90
44435;DHT22;30138;20.964;105.830;2023-04-03T15:28:58;27.90;99.90
44435;DHT22;30138;20.964;105.830;2023-04-03T15:34:06;27.90;99.90
44435;DHT22;30138;20.964;105.830;2023-04-03T15:39:13;27.90;99.90
44435;DHT22;30138;20.964;105.830;2023-04-03T15:44:20;27.90;99.90
44435;DHT22;30138;20.964;105.830;2023-04-03T15:49:29;27.90;99.90
44435;DHT22;30138;20.964;105.830;2023-04-03T15:54:40;27.90;99.90
44435;DHT22;30138;20.964;105.830;2023-04-03T15:59:55;27.90;99.90
44435;DHT22;30138;20.964;105.830;2023-04-03T16:05:48;27.80;99.90
44435;DHT22;30138;20.964;105.830;2023-04-03T16:10:56;27.80;99.90
44435;DHT22;30138;20.964;105.830;2023-04-03T16:16:04;27.80;99.90
44435;DHT22;30138;20.964;105.830;2023-04-03T16:21:13;27.70;99.90
44435;DHT22;30138;20.964;105.830;2023-04-03T16:26:22;27.70;99.90
44435;DHT22;30138;20.964;105.830;2023-04-03T16:31:30;27.70;99.90
44435;DHT22;30138;20.964;105.830;2023-04-03T16:36:39;27.70;99.90
44435;DHT22;30138;20.964;105.830;2023-04-03T16:41:47;27.60;99.90
44435;DHT22;30138;20.964;105.830;2023-04-03T16:46:54;27.60;99.90
44435;DHT22;30138;20.964;105.830;2023-04-03T16:52:05;27.60;99.90
44435;DHT22;30138;20.964;105.830;2023-04-03T16:57:12;27.50;99.90
44435;DHT22;30138;20.964;105.830;2023-04-03T17:02:19;27.50;99.90
44435;DHT22;30138;20.964;105.830;2023-04-03T17:07:30;27.50;99.90
44435;DHT22;30138;20.964;105.830;2023-04-03T17:12:37;27.50;99.90
44435;DHT22;30138;20.964;105.830;2023-04-03T17:17:44;27.50;99.90
44435;DHT22;30138;20.964;105.830;2023-04-03T17:22:53;27.50;99.90
44435;DHT22;30138;20.964;105.830;2023-04-03T17:28:00;27.40;99.90
44435;DHT22;30138;20.964;105.830;2023-04-03T17:33:07;27.40;99.90
44435;DHT22;30138;20.964;105.830;2023-04-03T17:38:16;27.40;99.90
44435;DHT22;30138;20.964;105.830;2023-04-03T17:43:22;27.40;99.90
44435;DHT22;30138;20.964;105.830;2023-04-03T17:48:30;27.40;99.90
44435;DHT22;30138;20.964;105.830;2023-04-03T17:53:40;27.40;99.90
44435;DHT22;30138;20.964;105.830;2023-04-03T17:58:47;27.40;99.90
44435;DHT22;30138;20.964;105.830;2023-04-03T18:03:55;27.30;99.90
44435;DHT22;30138;20.964;105.830;2023-04-03T18:09:08;27.30;99.90
44435;DHT22;30138;20.964;105.830;2023-04-03T18:14:17;27.30;99.90
44435;DHT22;30138;20.964;105.830;2023-04-03T18:19:25;27.30;99.90
44435;DHT22;30138;20.964;105.830;2023-04-03T18:24:34;27.30;99.90
44435;DHT22;30138;20.964;105.830;2023-04-03T18:29:44;27.30;99.90
44435;DHT22;30138;20.964;105.830;2023-04-03T18:34:52;27.30;99.90
44435;DHT22;30138;20.964;105.830;2023-04-03T18:40:01;27.30;99.90
44435;DHT22;30138;20.964;105.830;2023-04-03T18:45:10;27.30;99.90
44435;DHT22;30138;20.964;105.830;2023-04-03T18:50:17;27.30;99.90
44435;DHT22;30138;20.964;105.830;2023-04-03T18:55:26;27.20;99.90
44435;DHT22;30138;20.964;105.830;2023-04-03T19:01:00;27.30;99.90
44435;DHT22;30138;20.964;105.830;2023-04-03T19:06:07;27.20;99.90
44435;DHT22;30138;20.964;105.830;2023-04-03T19:11:16;27.20;99.90
44435;DHT22;30138;20.964;105.830;2023-04-03T19:16:23;27.20;99.90
44435;DHT22;30138;20.964;105.830;2023-04-03T19:21:31;27.20;99.90
44435;DHT22;30138;20.964;105.830;2023-04-03T19:26:42;27.20;99.90
44435;DHT22;30138;20.964;105.830;2023-04-03T19:31:49;27.20;99.90
44435;DHT22;30138;20.964;105.830;2023-04-03T19:36:56;27.20;99.90
44435;DHT22;30138;20.964;105.830;2023-04-03T19:42:06;27.20;99.90
44435;DHT22;30138;20.964;105.830;2023-04-03T19:47:13;27.20;99.90
44435;DHT22;30138;20.964;105.830;2023-04-03T19:52:24;27.20;99.90
44435;DHT22;30138;20.964;105.830;2023-04-03T19:57:33;27.20;99.90
44435;DHT22;30138;20.964;105.830;2023-04-03T20:02:41;27.20;99.90
44435;DHT22;30138;20.964;105.830;2023-04-03T20:07:49;27.20;99.90
44435;DHT22;30138;20.964;105.830;2023-04-03T20:13:00;27.20;99.90
44435;DHT22;30138;20.964;105.830;2023-04-03T20:18:11;27.20;99.90
44435;DHT22;30138;20.964;105.830;2023-04-03T20:23:20;27.20;99.90
44435;DHT22;30138;20.964;105.830;2023-04-03T20:28:28;27.20;99.90
44435;DHT22;30138;20.964;105.830;2023-04-03T20:33:35;27.20;99.90
44435;DHT22;30138;20.964;105.830;2023-04-03T20:38:42;27.20;99.90
44435;DHT22;30138;20.964;105.830;2023-04-03T20:43:52;27.20;99.90
44435;DHT22;30138;20.964;105.830;2023-04-03T20:48:59;27.20;99.90
44435;DHT22;30138;20.964;105.830;2023-04-03T20:54:06;27.20;99.90
44435;DHT22;30138;20.964;105.830;2023-04-03T20:59:15;27.20;99.90
44435;DHT22;30138;20.964;105.830;2023-04-03T21:04:25;27.20;99.90
44435;DHT22;30138;20.964;105.830;2023-04-03T21:20:56;27.10;99.90
44435;DHT22;30138;20.964;105.830;2023-04-03T21:26:03;27.20;99.90
44435;DHT22;30138;20.964;105.830;2023-04-03T21:31:10;27.10;99.90
44435;DHT22;30138;20.964;105.830;2023-04-03T21:36:20;27.10;99.90
44435;DHT22;30138;20.964;105.830;2023-04-03T21:41:27;27.10;99.90
44435;DHT22;30138;20.964;105.830;2023-04-03T21:46:33;27.10;99.90
44435;DHT22;30138;20.964;105.830;2023-04-03T21:51:43;27.10;99.90
44435;DHT22;30138;20.964;105.830;2023-04-03T21:56:50;27.10;99.90
44435;DHT22;30138;20.964;105.830;2023-04-03T22:01:58;27.10;99.90
44435;DHT22;30138;20.964;105.830;2023-04-03T22:07:10;27.10;99.90
44435;DHT22;30138;20.964;105.830;2023-04-03T22:12:17;27.10;99.90
44435;DHT22;30138;20.964;105.830;2023-04-03T22:17:23;27.10;99.90
44435;DHT22;30138;20.964;105.830;2023-04-03T22:22:34;27.10;99.90
44435;DHT22;30138;20.964;105.830;2023-04-03T22:27:40;27.10;99.90
44435;DHT22;30138;20.964;105.830;2023-04-03T22:32:48;27.10;99.90
44435;DHT22;30138;20.964;105.830;2023-04-03T22:37:56;27.00;99.90
44435;DHT22;30138;20.964;105.830;2023-04-03T22:43:03;27.10;99.90
44435;DHT22;30138;20.964;105.830;2023-04-03T22:48:10;27.10;99.90
44435;DHT22;30138;20.964;105.830;2023-04-03T22:53:19;27.10;99.90
44435;DHT22;30138;20.964;105.830;2023-04-03T22:58:27;27.10;99.90
44435;DHT22;30138;20.964;105.830;2023-04-03T23:03:34;27.00;99.90
44435;DHT22;30138;20.964;105.830;2023-04-03T23:08:43;27.00;99.90
44435;DHT22;30138;20.964;105.830;2023-04-03T23:13:50;27.00;99.90
44435;DHT22;30138;20.964;105.830;2023-04-03T23:18:57;27.00;99.90
44435;DHT22;30138;20.964;105.830;2023-04-03T23:24:07;27.00;99.90
44435;DHT22;30138;20.964;105.830;2023-04-03T23:29:14;27.00;99.90
44435;DHT22;30138;20.964;105.830;2023-04-03T23:34:22;27.00;99.90
44435;DHT22;30138;20.964;105.830;2023-04-03T23:39:32;27.10;99.90
44435;DHT22;30138;20.964;105.830;2023-04-03T23:44:40;27.00;99.90
44435;DHT22;30138;20.964;105.830;2023-04-03T23:49:48;27.00;99.90
44435;DHT22;30138;20.964;105.830;2023-04-03T23:54:58;27.10;99.90
